Longwood, New York
Current Conditions -  °F | °C
As of 2:51 AM on Saturday 20 Dec 2014 (Local Time) from KLGA Reporting Station
Overcast Overcast  
Wind Chill: 26°   Ceiling: 2800
Heat Index: 32°   Visibility: 10mi
Dew Point: 21°   Wind: 7mph
Humidity: 64%   Direction: 360°N
Pressure: 30.2"   Gusts: NA
Location:  40.8256°N, 73.8935°W
Report Text: KLGA 200751Z 36006KT 10SM OVC028 00/M06 A3020 RMK AO2 SLP227 T00001061
Loading
Personal Weather Stations






























Interactive Weather Map New forecast layout! Learn more

10-Day Weather Forecast

Advertisements
Track Severe Weather on mobile